Tuesday, July 29, 2014
04:44 UTC
  |  Log In   |  Register Free
Airport Search:

Southwest Georgia Regional Airport
(KABY)

Southwest Georgia Regional Airport Diagram
No Airport Diagram Available

FAA data valid effective July 24, 2014 until September 18, 2014 (unless otherwise noted).

 
 
 
 
 
 
 
 
 
 
 
 
 
 

Current Aviation Weather for Southwest Georgia Regional Airport (KABY)

The most recent METAR observation for KABY was updated at: 1853 UTC
METAR Summary (Translated METAR)
KABY
281853Z 25013G19KT 10SM CLR 35/22 A2994 RMK AO2 SLP136 T03500222
KMGR
(33.7 nm SE from KABY)
281835Z AUTO 27011G19KT 10SM CLR 35/21 A2996 RMK AO2 LTG DSNT S AND SW
TAF Summary (Translated TAF)
KABY
281722Z 2818/2918 27012G18KT P6SM VCTS BKN030CB FM282000 VRB15G30KT 3SM TSRA BKN020 OVC030CB FM290000 VRB06KT P6SM BKN040
  Airport Weather Conditions for KABY

 Current Weather at ABY
74° F
Fair
West winds at 3.5 mph
ABY NOAA Radar

Pressure: 29.94 in
Humidity: 88%
Wind: West at 3.5 MPH (3 KT)
Dew Point: 70.0°F
Visibility: 10.00 mi


Airport Weather Forecast for KABY

Translated METAR and TAF for KABY
Translated METAR for KABY (0437 UTC 29 July 2014)
found at http://aviationweather.gov/adds/metars/
 
METAR text: KABY 290353Z 28003KT 10SM CLR 23/21 A2994 RMK AO2 SLP135 T02330211
Conditions at: KABY (ALBANY , GA, US) observed 0353 UTC 29 July 2014
Temperature: 23.3°C (74°F)
Dewpoint: 21.1°C (70°F) [RH = 87%]
Pressure (altimeter): 29.94 inches Hg (1014.0 mb)
[Sea-level pressure: 1013.5 mb]
Winds: from the W (280 degrees) at 3 MPH (3 knots; 1.6 m/s)
Visibility: 10 or more miles (16+ km)
Ceiling: at least 12,000 feet AGL
Clouds: sky clear below 12,000 feet AGL
Weather: no significant weather observed at this time
Translated TAF for KABY
Forecast for: KABY (ALBANY , GA, US)
TAF Text: KABY 282320Z 2900/2924 VRB06KT P6SM SCT020 SCT110
Forecast period: 0000 to 0300 UTC 29 July 2014
Forecast type: FROM: standard forecast or significant change
Winds: variable direction winds at 7 MPH (6 knots; 3.1 m/s)
Visibility: 6 or more miles (10+ km)
Clouds: scattered clouds at 2000 feet AGL
scattered clouds at 11000 feet AGL
Weather: no significant weather forecast for this period
TAF Text: FM290300 30006KT P6SM SCT020
Forecast period: 0300 to 1400 UTC 29 July 2014
Forecast type: FROM: standard forecast or significant change
Winds: from the WNW (300 degrees) at 7 MPH (6 knots; 3.1 m/s)
Visibility: 6 or more miles (10+ km)
Clouds: scattered clouds at 2000 feet AGL
Weather: no significant weather forecast for this period
TAF Text: FM291400 35009KT P6SM SKC
Forecast period: 1400 UTC 29 July 2014 to 0000 UTC 30 July 2014
Forecast type: FROM: standard forecast or significant change
Winds: from the N (350 degrees) at 10 MPH (9 knots; 4.7 m/s)
Visibility: 6 or more miles (10+ km)
Clouds: clear skies
Weather: no significant weather forecast for this period

Find All Airport Services Find A Hotel Find A Rental Car Find A Golf Course Find A Restaurant $100 Hamburger



FBO's on the Field
FBO Company Facility Photos Services Transportation Aviation Fuel Prices: Prices include tax
Catering Weather Repair Courtesy Rental Type 100LL JetA JetA+ MOGAS 8087
 
Eagles of America, Inc. - ABY

This FBO has not yet been rated
FS:AirBP
Last Updated: Jul-23
Login to update fuel prices
SS:
Contact Eagles of America, Inc. - ABYMore FBO Information
 
Add another FBO Facility Photos Catering Weather Repair Courtesy Rental Type 100LL JetA JetA+ MOGAS 8087
Services Transportation Aviation Fuel Prices: Prices include tax


GlobalAir.com Airport Resource Center model-print
model-print
model-print
model-print